sensor_id;sensor_type;location;lat;lon;timestamp;P1;durP1;ratioP1;P2;durP2;ratioP2
58752;SDS011;44525;46.052;13.610;2023-07-31T00:01:14;7.35;;;3.67;;
58752;SDS011;44525;46.052;13.610;2023-07-31T00:03:39;6.50;;;3.70;;
58752;SDS011;44525;46.052;13.610;2023-07-31T00:06:04;6.30;;;3.58;;
58752;SDS011;44525;46.052;13.610;2023-07-31T00:08:29;11.13;;;4.15;;
58752;SDS011;44525;46.052;13.610;2023-07-31T00:10:55;7.25;;;3.65;;
58752;SDS011;44525;46.052;13.610;2023-07-31T00:13:20;5.97;;;3.80;;
58752;SDS011;44525;46.052;13.610;2023-07-31T00:15:46;10.82;;;3.88;;
58752;SDS011;44525;46.052;13.610;2023-07-31T00:18:11;6.90;;;3.47;;
58752;SDS011;44525;46.052;13.610;2023-07-31T00:20:36;5.93;;;3.60;;
58752;SDS011;44525;46.052;13.610;2023-07-31T00:23:02;10.25;;;3.88;;
58752;SDS011;44525;46.052;13.610;2023-07-31T00:25:27;10.10;;;3.63;;
58752;SDS011;44525;46.052;13.610;2023-07-31T00:27:52;8.32;;;3.58;;
58752;SDS011;44525;46.052;13.610;2023-07-31T00:30:18;6.28;;;3.38;;
58752;SDS011;44525;46.052;13.610;2023-07-31T00:32:43;7.18;;;3.97;;
58752;SDS011;44525;46.052;13.610;2023-07-31T00:35:08;5.00;;;3.50;;
58752;SDS011;44525;46.052;13.610;2023-07-31T00:37:34;8.45;;;3.30;;
58752;SDS011;44525;46.052;13.610;2023-07-31T00:39:59;7.30;;;3.42;;
58752;SDS011;44525;46.052;13.610;2023-07-31T00:42:25;7.05;;;3.70;;
58752;SDS011;44525;46.052;13.610;2023-07-31T00:44:50;5.57;;;3.40;;
58752;SDS011;44525;46.052;13.610;2023-07-31T00:47:16;8.38;;;3.50;;
58752;SDS011;44525;46.052;13.610;2023-07-31T00:49:41;5.93;;;3.60;;
58752;SDS011;44525;46.052;13.610;2023-07-31T00:52:07;8.52;;;3.83;;
58752;SDS011;44525;46.052;13.610;2023-07-31T00:54:32;8.73;;;3.72;;
58752;SDS011;44525;46.052;13.610;2023-07-31T00:56:58;6.22;;;3.88;;
58752;SDS011;44525;46.052;13.610;2023-07-31T00:59:24;12.45;;;3.88;;
58752;SDS011;44525;46.052;13.610;2023-07-31T01:01:50;13.18;;;3.80;;
58752;SDS011;44525;46.052;13.610;2023-07-31T01:04:16;7.10;;;3.80;;
58752;SDS011;44525;46.052;13.610;2023-07-31T01:07:27;7.10;;;3.65;;
58752;SDS011;44525;46.052;13.610;2023-07-31T01:09:48;9.90;;;3.80;;
58752;SDS011;44525;46.052;13.610;2023-07-31T01:12:35;6.13;;;3.63;;
58752;SDS011;44525;46.052;13.610;2023-07-31T01:15:07;8.00;;;3.92;;
58752;SDS011;44525;46.052;13.610;2023-07-31T01:20:04;9.95;;;3.80;;
58752;SDS011;44525;46.052;13.610;2023-07-31T01:28:30;6.55;;;3.75;;
58752;SDS011;44525;46.052;13.610;2023-07-31T01:31:03;7.13;;;3.72;;
58752;SDS011;44525;46.052;13.610;2023-07-31T01:33:32;7.43;;;3.92;;
58752;SDS011;44525;46.052;13.610;2023-07-31T01:35:59;6.18;;;3.50;;
58752;SDS011;44525;46.052;13.610;2023-07-31T01:38:25;6.03;;;3.60;;
58752;SDS011;44525;46.052;13.610;2023-07-31T01:40:52;9.25;;;3.80;;
58752;SDS011;44525;46.052;13.610;2023-07-31T01:43:18;5.32;;;3.50;;
58752;SDS011;44525;46.052;13.610;2023-07-31T01:45:43;7.10;;;3.42;;
58752;SDS011;44525;46.052;13.610;2023-07-31T01:48:09;7.80;;;3.90;;
58752;SDS011;44525;46.052;13.610;2023-07-31T01:50:34;8.00;;;4.15;;
58752;SDS011;44525;46.052;13.610;2023-07-31T01:52:59;9.27;;;3.40;;
58752;SDS011;44525;46.052;13.610;2023-07-31T01:55:25;6.10;;;3.70;;
58752;SDS011;44525;46.052;13.610;2023-07-31T01:57:50;6.38;;;3.53;;
58752;SDS011;44525;46.052;13.610;2023-07-31T02:00:17;4.68;;;3.33;;
58752;SDS011;44525;46.052;13.610;2023-07-31T02:02:43;6.00;;;3.38;;
58752;SDS011;44525;46.052;13.610;2023-07-31T02:05:08;4.55;;;3.25;;
58752;SDS011;44525;46.052;13.610;2023-07-31T02:07:33;6.38;;;3.85;;
58752;SDS011;44525;46.052;13.610;2023-07-31T02:09:59;5.43;;;3.58;;
58752;SDS011;44525;46.052;13.610;2023-07-31T02:12:24;5.30;;;3.47;;
58752;SDS011;44525;46.052;13.610;2023-07-31T02:14:49;10.13;;;3.78;;
58752;SDS011;44525;46.052;13.610;2023-07-31T02:17:15;6.25;;;3.38;;
58752;SDS011;44525;46.052;13.610;2023-07-31T02:19:40;8.15;;;3.30;;
58752;SDS011;44525;46.052;13.610;2023-07-31T02:22:05;5.50;;;3.33;;
58752;SDS011;44525;46.052;13.610;2023-07-31T02:24:31;8.63;;;3.90;;
58752;SDS011;44525;46.052;13.610;2023-07-31T02:26:57;10.75;;;3.50;;
58752;SDS011;44525;46.052;13.610;2023-07-31T02:29:22;6.95;;;3.45;;
58752;SDS011;44525;46.052;13.610;2023-07-31T02:31:47;9.07;;;4.13;;
58752;SDS011;44525;46.052;13.610;2023-07-31T02:34:13;11.95;;;4.05;;
58752;SDS011;44525;46.052;13.610;2023-07-31T02:36:38;7.18;;;3.60;;
58752;SDS011;44525;46.052;13.610;2023-07-31T02:39:03;6.78;;;3.40;;
58752;SDS011;44525;46.052;13.610;2023-07-31T02:41:29;5.97;;;3.38;;
58752;SDS011;44525;46.052;13.610;2023-07-31T02:43:55;7.63;;;3.65;;
58752;SDS011;44525;46.052;13.610;2023-07-31T02:46:20;6.13;;;3.40;;
58752;SDS011;44525;46.052;13.610;2023-07-31T02:48:49;7.85;;;3.25;;
58752;SDS011;44525;46.052;13.610;2023-07-31T02:51:14;9.65;;;4.15;;
58752;SDS011;44525;46.052;13.610;2023-07-31T02:53:41;8.35;;;3.30;;
58752;SDS011;44525;46.052;13.610;2023-07-31T02:56:06;6.05;;;3.45;;
58752;SDS011;44525;46.052;13.610;2023-07-31T02:58:31;6.05;;;3.00;;
58752;SDS011;44525;46.052;13.610;2023-07-31T03:00:58;5.90;;;3.63;;
58752;SDS011;44525;46.052;13.610;2023-07-31T03:03:23;7.43;;;3.47;;
58752;SDS011;44525;46.052;13.610;2023-07-31T03:05:49;7.45;;;3.60;;
58752;SDS011;44525;46.052;13.610;2023-07-31T03:08:14;8.63;;;3.40;;
58752;SDS011;44525;46.052;13.610;2023-07-31T03:10:40;7.50;;;3.42;;
58752;SDS011;44525;46.052;13.610;2023-07-31T03:13:05;6.28;;;3.58;;
58752;SDS011;44525;46.052;13.610;2023-07-31T03:15:31;6.65;;;3.30;;
58752;SDS011;44525;46.052;13.610;2023-07-31T03:17:56;5.90;;;3.30;;
58752;SDS011;44525;46.052;13.610;2023-07-31T03:20:22;8.15;;;3.40;;
58752;SDS011;44525;46.052;13.610;2023-07-31T03:22:47;4.82;;;3.50;;
58752;SDS011;44525;46.052;13.610;2023-07-31T03:25:12;5.60;;;3.28;;
58752;SDS011;44525;46.052;13.610;2023-07-31T03:27:39;6.45;;;3.60;;
58752;SDS011;44525;46.052;13.610;2023-07-31T03:30:04;6.95;;;3.35;;
58752;SDS011;44525;46.052;13.610;2023-07-31T03:32:30;5.88;;;3.40;;
58752;SDS011;44525;46.052;13.610;2023-07-31T03:34:55;6.93;;;3.60;;
58752;SDS011;44525;46.052;13.610;2023-07-31T03:37:21;6.20;;;3.30;;
58752;SDS011;44525;46.052;13.610;2023-07-31T03:39:46;11.10;;;3.63;;
58752;SDS011;44525;46.052;13.610;2023-07-31T03:42:12;6.95;;;3.08;;
58752;SDS011;44525;46.052;13.610;2023-07-31T03:44:37;5.78;;;3.25;;
58752;SDS011;44525;46.052;13.610;2023-07-31T03:47:02;7.63;;;3.28;;
58752;SDS011;44525;46.052;13.610;2023-07-31T03:49:28;6.50;;;3.28;;
58752;SDS011;44525;46.052;13.610;2023-07-31T03:51:53;8.57;;;3.40;;
58752;SDS011;44525;46.052;13.610;2023-07-31T03:54:19;6.95;;;3.33;;
58752;SDS011;44525;46.052;13.610;2023-07-31T03:56:44;6.22;;;3.20;;
58752;SDS011;44525;46.052;13.610;2023-07-31T03:59:09;7.63;;;3.55;;
58752;SDS011;44525;46.052;13.610;2023-07-31T04:01:35;7.47;;;3.65;;
58752;SDS011;44525;46.052;13.610;2023-07-31T04:04:00;8.55;;;3.55;;
58752;SDS011;44525;46.052;13.610;2023-07-31T04:06:25;4.90;;;3.10;;
58752;SDS011;44525;46.052;13.610;2023-07-31T04:08:51;5.20;;;3.58;;
58752;SDS011;44525;46.052;13.610;2023-07-31T04:11:16;8.10;;;3.60;;
58752;SDS011;44525;46.052;13.610;2023-07-31T04:13:42;5.32;;;3.28;;
58752;SDS011;44525;46.052;13.610;2023-07-31T04:16:07;7.45;;;3.40;;
58752;SDS011;44525;46.052;13.610;2023-07-31T04:18:32;6.32;;;3.63;;
58752;SDS011;44525;46.052;13.610;2023-07-31T04:20:58;9.35;;;3.83;;
58752;SDS011;44525;46.052;13.610;2023-07-31T04:23:24;12.93;;;3.67;;
58752;SDS011;44525;46.052;13.610;2023-07-31T04:25:50;7.35;;;3.22;;
58752;SDS011;44525;46.052;13.610;2023-07-31T04:28:15;6.38;;;3.70;;
58752;SDS011;44525;46.052;13.610;2023-07-31T04:30:40;5.85;;;3.17;;
58752;SDS011;44525;46.052;13.610;2023-07-31T04:33:06;5.65;;;3.30;;
58752;SDS011;44525;46.052;13.610;2023-07-31T04:35:31;8.38;;;3.60;;
58752;SDS011;44525;46.052;13.610;2023-07-31T04:37:57;4.28;;;3.13;;
58752;SDS011;44525;46.052;13.610;2023-07-31T04:40:22;4.82;;;3.38;;
58752;SDS011;44525;46.052;13.610;2023-07-31T04:42:47;6.03;;;3.13;;
58752;SDS011;44525;46.052;13.610;2023-07-31T04:45:14;6.65;;;3.60;;
58752;SDS011;44525;46.052;13.610;2023-07-31T04:47:39;7.95;;;3.70;;
58752;SDS011;44525;46.052;13.610;2023-07-31T04:50:05;6.50;;;3.50;;
58752;SDS011;44525;46.052;13.610;2023-07-31T04:52:31;10.32;;;3.58;;
58752;SDS011;44525;46.052;13.610;2023-07-31T04:54:56;7.43;;;3.60;;
58752;SDS011;44525;46.052;13.610;2023-07-31T04:57:21;6.50;;;3.63;;
58752;SDS011;44525;46.052;13.610;2023-07-31T04:59:47;8.63;;;3.40;;
58752;SDS011;44525;46.052;13.610;2023-07-31T05:02:12;6.07;;;3.63;;
58752;SDS011;44525;46.052;13.610;2023-07-31T05:04:38;7.03;;;3.50;;
58752;SDS011;44525;46.052;13.610;2023-07-31T05:07:04;6.40;;;3.35;;
58752;SDS011;44525;46.052;13.610;2023-07-31T05:09:29;7.13;;;3.53;;
58752;SDS011;44525;46.052;13.610;2023-07-31T05:11:54;7.78;;;3.40;;
58752;SDS011;44525;46.052;13.610;2023-07-31T05:14:20;6.13;;;3.45;;
58752;SDS011;44525;46.052;13.610;2023-07-31T05:16:45;5.03;;;3.05;;
58752;SDS011;44525;46.052;13.610;2023-07-31T05:19:11;6.97;;;3.58;;
58752;SDS011;44525;46.052;13.610;2023-07-31T05:21:36;5.68;;;3.42;;
58752;SDS011;44525;46.052;13.610;2023-07-31T05:24:01;7.03;;;3.15;;
58752;SDS011;44525;46.052;13.610;2023-07-31T05:26:27;5.82;;;2.97;;
58752;SDS011;44525;46.052;13.610;2023-07-31T05:28:52;5.78;;;3.00;;
58752;SDS011;44525;46.052;13.610;2023-07-31T05:31:18;5.45;;;3.35;;
58752;SDS011;44525;46.052;13.610;2023-07-31T05:33:43;5.07;;;3.20;;
58752;SDS011;44525;46.052;13.610;2023-07-31T05:36:09;4.93;;;3.10;;
58752;SDS011;44525;46.052;13.610;2023-07-31T05:38:34;4.40;;;3.15;;
58752;SDS011;44525;46.052;13.610;2023-07-31T05:41:00;4.60;;;3.10;;
58752;SDS011;44525;46.052;13.610;2023-07-31T05:43:25;4.75;;;3.05;;
58752;SDS011;44525;46.052;13.610;2023-07-31T05:45:50;6.60;;;3.13;;
58752;SDS011;44525;46.052;13.610;2023-07-31T05:48:16;4.60;;;2.92;;
58752;SDS011;44525;46.052;13.610;2023-07-31T05:50:42;5.60;;;3.10;;
58752;SDS011;44525;46.052;13.610;2023-07-31T05:53:08;4.90;;;3.10;;
58752;SDS011;44525;46.052;13.610;2023-07-31T05:55:35;4.55;;;2.80;;
58752;SDS011;44525;46.052;13.610;2023-07-31T05:58:00;4.25;;;2.90;;
58752;SDS011;44525;46.052;13.610;2023-07-31T06:00:26;6.43;;;2.80;;
58752;SDS011;44525;46.052;13.610;2023-07-31T06:02:52;7.30;;;3.25;;
58752;SDS011;44525;46.052;13.610;2023-07-31T06:05:17;4.35;;;3.10;;
58752;SDS011;44525;46.052;13.610;2023-07-31T06:07:43;4.25;;;2.78;;
58752;SDS011;44525;46.052;13.610;2023-07-31T06:10:08;6.57;;;3.25;;
58752;SDS011;44525;46.052;13.610;2023-07-31T06:12:34;4.90;;;2.97;;
58752;SDS011;44525;46.052;13.610;2023-07-31T06:15:01;5.53;;;3.17;;
58752;SDS011;44525;46.052;13.610;2023-07-31T06:17:27;3.72;;;2.72;;
58752;SDS011;44525;46.052;13.610;2023-07-31T06:19:53;3.90;;;2.80;;
58752;SDS011;44525;46.052;13.610;2023-07-31T06:22:18;4.65;;;2.80;;
58752;SDS011;44525;46.052;13.610;2023-07-31T06:24:44;4.53;;;2.92;;
58752;SDS011;44525;46.052;13.610;2023-07-31T06:27:09;5.63;;;3.20;;
58752;SDS011;44525;46.052;13.610;2023-07-31T06:29:35;4.97;;;2.95;;
58752;SDS011;44525;46.052;13.610;2023-07-31T06:32:01;4.80;;;2.65;;
58752;SDS011;44525;46.052;13.610;2023-07-31T06:34:27;4.82;;;2.90;;
58752;SDS011;44525;46.052;13.610;2023-07-31T06:36:52;3.70;;;2.60;;
58752;SDS011;44525;46.052;13.610;2023-07-31T06:39:17;6.13;;;3.38;;
58752;SDS011;44525;46.052;13.610;2023-07-31T06:41:43;4.63;;;2.78;;
58752;SDS011;44525;46.052;13.610;2023-07-31T06:44:09;4.63;;;3.15;;
58752;SDS011;44525;46.052;13.610;2023-07-31T06:46:34;4.60;;;3.00;;
58752;SDS011;44525;46.052;13.610;2023-07-31T06:49:00;5.75;;;3.05;;
58752;SDS011;44525;46.052;13.610;2023-07-31T06:51:25;4.60;;;2.60;;
58752;SDS011;44525;46.052;13.610;2023-07-31T06:53:50;6.93;;;2.75;;
58752;SDS011;44525;46.052;13.610;2023-07-31T06:56:16;4.32;;;2.95;;
58752;SDS011;44525;46.052;13.610;2023-07-31T06:58:41;4.47;;;2.80;;
58752;SDS011;44525;46.052;13.610;2023-07-31T07:01:06;4.55;;;2.70;;
58752;SDS011;44525;46.052;13.610;2023-07-31T07:03:32;5.60;;;2.70;;
58752;SDS011;44525;46.052;13.610;2023-07-31T07:05:57;4.97;;;2.95;;
58752;SDS011;44525;46.052;13.610;2023-07-31T07:08:23;4.93;;;2.78;;
58752;SDS011;44525;46.052;13.610;2023-07-31T07:10:49;4.38;;;2.78;;
58752;SDS011;44525;46.052;13.610;2023-07-31T07:13:14;5.28;;;2.70;;
58752;SDS011;44525;46.052;13.610;2023-07-31T07:15:40;4.78;;;3.20;;
58752;SDS011;44525;46.052;13.610;2023-07-31T07:18:05;4.22;;;2.70;;
58752;SDS011;44525;46.052;13.610;2023-07-31T07:20:30;6.35;;;2.67;;
58752;SDS011;44525;46.052;13.610;2023-07-31T07:22:56;4.20;;;2.70;;
58752;SDS011;44525;46.052;13.610;2023-07-31T07:25:21;4.78;;;2.92;;
58752;SDS011;44525;46.052;13.610;2023-07-31T07:27:47;5.07;;;2.80;;
58752;SDS011;44525;46.052;13.610;2023-07-31T07:30:12;4.80;;;2.72;;
58752;SDS011;44525;46.052;13.610;2023-07-31T07:32:39;4.53;;;2.83;;
58752;SDS011;44525;46.052;13.610;2023-07-31T07:35:04;3.67;;;2.70;;
58752;SDS011;44525;46.052;13.610;2023-07-31T07:37:31;4.22;;;2.80;;
58752;SDS011;44525;46.052;13.610;2023-07-31T07:39:56;7.45;;;2.97;;
58752;SDS011;44525;46.052;13.610;2023-07-31T07:42:22;5.88;;;2.80;;
58752;SDS011;44525;46.052;13.610;2023-07-31T07:44:47;6.63;;;2.45;;
58752;SDS011;44525;46.052;13.610;2023-07-31T07:47:13;4.68;;;2.70;;
58752;SDS011;44525;46.052;13.610;2023-07-31T07:49:38;4.75;;;2.85;;
58752;SDS011;44525;46.052;13.610;2023-07-31T07:52:04;4.55;;;2.80;;
58752;SDS011;44525;46.052;13.610;2023-07-31T07:54:30;3.92;;;2.72;;
58752;SDS011;44525;46.052;13.610;2023-07-31T07:56:56;5.22;;;2.75;;
58752;SDS011;44525;46.052;13.610;2023-07-31T07:59:21;3.65;;;2.60;;
58752;SDS011;44525;46.052;13.610;2023-07-31T08:01:46;4.38;;;2.88;;
58752;SDS011;44525;46.052;13.610;2023-07-31T08:04:12;3.78;;;2.60;;
58752;SDS011;44525;46.052;13.610;2023-07-31T08:06:37;4.15;;;2.80;;
58752;SDS011;44525;46.052;13.610;2023-07-31T08:09:02;4.28;;;2.97;;
58752;SDS011;44525;46.052;13.610;2023-07-31T08:11:31;4.60;;;2.78;;
58752;SDS011;44525;46.052;13.610;2023-07-31T08:13:57;5.20;;;2.75;;
58752;SDS011;44525;46.052;13.610;2023-07-31T08:16:23;5.72;;;2.88;;
58752;SDS011;44525;46.052;13.610;2023-07-31T08:18:48;4.78;;;2.78;;
58752;SDS011;44525;46.052;13.610;2023-07-31T08:21:14;3.60;;;2.50;;
58752;SDS011;44525;46.052;13.610;2023-07-31T08:23:40;5.05;;;3.00;;
58752;SDS011;44525;46.052;13.610;2023-07-31T08:26:05;4.43;;;2.70;;
58752;SDS011;44525;46.052;13.610;2023-07-31T08:28:30;4.75;;;2.70;;
58752;SDS011;44525;46.052;13.610;2023-07-31T08:30:56;5.55;;;2.90;;
58752;SDS011;44525;46.052;13.610;2023-07-31T08:33:21;4.15;;;2.72;;
58752;SDS011;44525;46.052;13.610;2023-07-31T08:35:46;4.05;;;2.88;;
58752;SDS011;44525;46.052;13.610;2023-07-31T08:38:12;4.28;;;2.85;;
58752;SDS011;44525;46.052;13.610;2023-07-31T08:40:37;4.28;;;2.65;;
58752;SDS011;44525;46.052;13.610;2023-07-31T08:43:03;4.35;;;2.72;;
58752;SDS011;44525;46.052;13.610;2023-07-31T08:45:29;4.50;;;2.78;;
58752;SDS011;44525;46.052;13.610;2023-07-31T08:47:55;3.95;;;2.40;;
58752;SDS011;44525;46.052;13.610;2023-07-31T08:50:22;4.38;;;2.70;;
58752;SDS011;44525;46.052;13.610;2023-07-31T08:52:49;3.85;;;2.70;;
58752;SDS011;44525;46.052;13.610;2023-07-31T08:55:15;4.35;;;2.60;;
58752;SDS011;44525;46.052;13.610;2023-07-31T08:57:40;6.28;;;3.28;;
58752;SDS011;44525;46.052;13.610;2023-07-31T09:00:07;4.20;;;2.83;;
58752;SDS011;44525;46.052;13.610;2023-07-31T09:02:38;5.18;;;2.70;;
58752;SDS011;44525;46.052;13.610;2023-07-31T09:05:13;4.93;;;2.60;;
58752;SDS011;44525;46.052;13.610;2023-07-31T09:07:40;4.80;;;2.90;;
58752;SDS011;44525;46.052;13.610;2023-07-31T09:10:11;4.20;;;2.75;;
58752;SDS011;44525;46.052;13.610;2023-07-31T09:12:36;3.85;;;2.78;;
58752;SDS011;44525;46.052;13.610;2023-07-31T09:15:03;3.90;;;2.92;;
58752;SDS011;44525;46.052;13.610;2023-07-31T09:17:29;7.85;;;3.05;;
58752;SDS011;44525;46.052;13.610;2023-07-31T09:19:56;4.05;;;2.85;;
58752;SDS011;44525;46.052;13.610;2023-07-31T09:22:31;5.47;;;2.80;;
58752;SDS011;44525;46.052;13.610;2023-07-31T09:25:04;5.28;;;3.33;;
58752;SDS011;44525;46.052;13.610;2023-07-31T09:30:17;5.40;;;3.00;;
58752;SDS011;44525;46.052;13.610;2023-07-31T09:32:46;5.13;;;2.90;;
58752;SDS011;44525;46.052;13.610;2023-07-31T09:35:22;5.97;;;3.00;;
58752;SDS011;44525;46.052;13.610;2023-07-31T09:37:55;4.70;;;2.70;;
58752;SDS011;44525;46.052;13.610;2023-07-31T09:40:26;4.13;;;2.95;;
58752;SDS011;44525;46.052;13.610;2023-07-31T09:42:52;4.53;;;2.83;;
58752;SDS011;44525;46.052;13.610;2023-07-31T09:45:18;4.18;;;2.83;;
58752;SDS011;44525;46.052;13.610;2023-07-31T09:47:47;5.00;;;2.67;;
58752;SDS011;44525;46.052;13.610;2023-07-31T09:50:13;5.13;;;3.00;;
58752;SDS011;44525;46.052;13.610;2023-07-31T09:52:41;5.22;;;2.53;;
58752;SDS011;44525;46.052;13.610;2023-07-31T09:55:06;3.88;;;2.63;;
58752;SDS011;44525;46.052;13.610;2023-07-31T09:57:32;4.13;;;2.97;;
58752;SDS011;44525;46.052;13.610;2023-07-31T09:59:58;3.83;;;2.85;;
58752;SDS011;44525;46.052;13.610;2023-07-31T10:02:24;5.00;;;2.75;;
58752;SDS011;44525;46.052;13.610;2023-07-31T10:04:51;5.50;;;3.35;;
58752;SDS011;44525;46.052;13.610;2023-07-31T10:07:23;4.60;;;3.03;;
58752;SDS011;44525;46.052;13.610;2023-07-31T10:09:51;5.80;;;3.08;;
58752;SDS011;44525;46.052;13.610;2023-07-31T10:12:19;7.80;;;2.88;;
58752;SDS011;44525;46.052;13.610;2023-07-31T10:14:45;8.60;;;3.20;;
58752;SDS011;44525;46.052;13.610;2023-07-31T10:17:10;4.85;;;2.90;;
58752;SDS011;44525;46.052;13.610;2023-07-31T10:19:37;4.05;;;2.95;;
58752;SDS011;44525;46.052;13.610;2023-07-31T10:22:04;5.70;;;2.90;;
58752;SDS011;44525;46.052;13.610;2023-07-31T10:24:30;5.22;;;3.03;;
58752;SDS011;44525;46.052;13.610;2023-07-31T10:26:57;5.60;;;3.15;;
58752;SDS011;44525;46.052;13.610;2023-07-31T10:29:24;5.70;;;3.05;;
58752;SDS011;44525;46.052;13.610;2023-07-31T10:31:51;8.88;;;3.05;;
58752;SDS011;44525;46.052;13.610;2023-07-31T10:34:17;4.55;;;3.05;;
58752;SDS011;44525;46.052;13.610;2023-07-31T10:36:43;6.97;;;3.40;;
58752;SDS011;44525;46.052;13.610;2023-07-31T10:39:32;5.72;;;3.00;;
58752;SDS011;44525;46.052;13.610;2023-07-31T10:42:09;6.45;;;3.20;;
58752;SDS011;44525;46.052;13.610;2023-07-31T10:44:35;8.00;;;3.50;;
58752;SDS011;44525;46.052;13.610;2023-07-31T10:47:01;4.85;;;3.08;;
58752;SDS011;44525;46.052;13.610;2023-07-31T10:49:27;6.60;;;2.92;;
58752;SDS011;44525;46.052;13.610;2023-07-31T10:51:56;6.00;;;2.97;;
58752;SDS011;44525;46.052;13.610;2023-07-31T10:54:22;6.50;;;3.17;;
58752;SDS011;44525;46.052;13.610;2023-07-31T10:56:49;4.55;;;3.00;;
58752;SDS011;44525;46.052;13.610;2023-07-31T10:59:15;5.30;;;3.38;;
58752;SDS011;44525;46.052;13.610;2023-07-31T11:01:55;5.38;;;3.03;;
58752;SDS011;44525;46.052;13.610;2023-07-31T11:04:27;4.18;;;2.97;;
58752;SDS011;44525;46.052;13.610;2023-07-31T11:07:00;4.35;;;3.05;;
58752;SDS011;44525;46.052;13.610;2023-07-31T11:09:28;4.95;;;2.92;;
58752;SDS011;44525;46.052;13.610;2023-07-31T11:11:55;4.70;;;2.80;;
58752;SDS011;44525;46.052;13.610;2023-07-31T11:14:20;4.57;;;3.10;;
58752;SDS011;44525;46.052;13.610;2023-07-31T11:16:46;4.65;;;3.13;;
58752;SDS011;44525;46.052;13.610;2023-07-31T11:19:18;5.10;;;3.05;;
58752;SDS011;44525;46.052;13.610;2023-07-31T11:21:46;4.68;;;3.28;;
58752;SDS011;44525;46.052;13.610;2023-07-31T11:24:13;4.30;;;3.20;;
58752;SDS011;44525;46.052;13.610;2023-07-31T11:26:38;4.35;;;2.83;;
58752;SDS011;44525;46.052;13.610;2023-07-31T11:29:10;4.43;;;3.00;;
58752;SDS011;44525;46.052;13.610;2023-07-31T11:31:41;4.07;;;3.13;;
58752;SDS011;44525;46.052;13.610;2023-07-31T11:34:08;4.20;;;2.90;;
58752;SDS011;44525;46.052;13.610;2023-07-31T11:36:33;4.63;;;3.13;;
58752;SDS011;44525;46.052;13.610;2023-07-31T11:39:05;4.57;;;3.10;;
58752;SDS011;44525;46.052;13.610;2023-07-31T11:41:32;4.43;;;3.10;;
58752;SDS011;44525;46.052;13.610;2023-07-31T11:44:01;4.30;;;3.05;;
58752;SDS011;44525;46.052;13.610;2023-07-31T11:46:27;4.97;;;3.30;;
58752;SDS011;44525;46.052;13.610;2023-07-31T11:48:58;5.30;;;3.25;;
58752;SDS011;44525;46.052;13.610;2023-07-31T11:51:24;4.95;;;3.08;;
58752;SDS011;44525;46.052;13.610;2023-07-31T11:53:51;4.00;;;2.85;;
58752;SDS011;44525;46.052;13.610;2023-07-31T11:56:25;4.90;;;3.13;;
58752;SDS011;44525;46.052;13.610;2023-07-31T11:58:56;6.43;;;3.00;;
58752;SDS011;44525;46.052;13.610;2023-07-31T12:01:24;5.50;;;3.03;;
58752;SDS011;44525;46.052;13.610;2023-07-31T12:03:52;5.05;;;3.15;;
58752;SDS011;44525;46.052;13.610;2023-07-31T12:06:18;5.13;;;3.00;;
58752;SDS011;44525;46.052;13.610;2023-07-31T12:08:46;5.47;;;3.10;;
58752;SDS011;44525;46.052;13.610;2023-07-31T12:11:11;4.13;;;3.00;;
58752;SDS011;44525;46.052;13.610;2023-07-31T12:13:38;4.68;;;3.13;;
58752;SDS011;44525;46.052;13.610;2023-07-31T12:16:04;4.35;;;3.10;;
58752;SDS011;44525;46.052;13.610;2023-07-31T12:18:31;5.18;;;2.90;;
58752;SDS011;44525;46.052;13.610;2023-07-31T12:21:00;4.78;;;2.85;;
58752;SDS011;44525;46.052;13.610;2023-07-31T12:23:28;4.88;;;3.15;;
58752;SDS011;44525;46.052;13.610;2023-07-31T12:28:34;4.68;;;2.90;;
58752;SDS011;44525;46.052;13.610;2023-07-31T12:31:03;6.63;;;3.30;;
58752;SDS011;44525;46.052;13.610;2023-07-31T12:33:33;6.25;;;2.67;;
58752;SDS011;44525;46.052;13.610;2023-07-31T12:36:03;4.55;;;2.90;;
58752;SDS011;44525;46.052;13.610;2023-07-31T12:38:31;4.00;;;2.90;;
58752;SDS011;44525;46.052;13.610;2023-07-31T12:40:57;4.55;;;3.05;;
58752;SDS011;44525;46.052;13.610;2023-07-31T12:43:22;4.60;;;3.00;;
58752;SDS011;44525;46.052;13.610;2023-07-31T12:45:47;4.60;;;3.03;;
58752;SDS011;44525;46.052;13.610;2023-07-31T12:48:13;4.35;;;3.15;;
58752;SDS011;44525;46.052;13.610;2023-07-31T12:50:38;4.13;;;2.60;;
58752;SDS011;44525;46.052;13.610;2023-07-31T12:53:04;4.22;;;2.85;;
58752;SDS011;44525;46.052;13.610;2023-07-31T12:55:30;5.05;;;3.00;;
58752;SDS011;44525;46.052;13.610;2023-07-31T12:57:55;4.68;;;3.20;;
58752;SDS011;44525;46.052;13.610;2023-07-31T13:00:21;4.38;;;3.00;;
58752;SDS011;44525;46.052;13.610;2023-07-31T13:02:47;4.22;;;2.90;;
58752;SDS011;44525;46.052;13.610;2023-07-31T13:05:12;4.88;;;3.00;;
58752;SDS011;44525;46.052;13.610;2023-07-31T13:07:38;6.35;;;2.90;;
58752;SDS011;44525;46.052;13.610;2023-07-31T13:10:04;4.45;;;3.00;;
58752;SDS011;44525;46.052;13.610;2023-07-31T13:12:30;4.30;;;3.00;;
58752;SDS011;44525;46.052;13.610;2023-07-31T13:14:55;4.32;;;2.90;;
58752;SDS011;44525;46.052;13.610;2023-07-31T13:17:20;4.55;;;2.90;;
58752;SDS011;44525;46.052;13.610;2023-07-31T13:19:46;3.95;;;2.95;;
58752;SDS011;44525;46.052;13.610;2023-07-31T13:22:11;6.95;;;2.90;;
58752;SDS011;44525;46.052;13.610;2023-07-31T13:24:37;4.75;;;2.80;;
58752;SDS011;44525;46.052;13.610;2023-07-31T13:27:02;4.68;;;3.03;;
58752;SDS011;44525;46.052;13.610;2023-07-31T13:29:29;4.13;;;3.00;;
58752;SDS011;44525;46.052;13.610;2023-07-31T13:31:55;6.57;;;2.97;;
58752;SDS011;44525;46.052;13.610;2023-07-31T13:34:20;4.50;;;3.03;;
58752;SDS011;44525;46.052;13.610;2023-07-31T13:36:45;4.50;;;2.97;;
58752;SDS011;44525;46.052;13.610;2023-07-31T13:39:11;4.65;;;3.28;;
58752;SDS011;44525;46.052;13.610;2023-07-31T13:41:36;6.03;;;3.13;;
58752;SDS011;44525;46.052;13.610;2023-07-31T13:44:02;4.65;;;3.13;;
58752;SDS011;44525;46.052;13.610;2023-07-31T13:46:27;3.90;;;2.60;;
58752;SDS011;44525;46.052;13.610;2023-07-31T13:48:53;3.63;;;2.70;;
58752;SDS011;44525;46.052;13.610;2023-07-31T13:51:20;4.30;;;2.60;;
58752;SDS011;44525;46.052;13.610;2023-07-31T13:53:46;4.30;;;3.15;;
58752;SDS011;44525;46.052;13.610;2023-07-31T13:56:12;5.88;;;2.90;;
58752;SDS011;44525;46.052;13.610;2023-07-31T13:58:37;4.65;;;3.13;;
58752;SDS011;44525;46.052;13.610;2023-07-31T14:01:02;4.30;;;2.90;;
58752;SDS011;44525;46.052;13.610;2023-07-31T14:03:28;4.10;;;2.60;;
58752;SDS011;44525;46.052;13.610;2023-07-31T14:05:54;4.15;;;3.00;;
58752;SDS011;44525;46.052;13.610;2023-07-31T14:08:20;4.20;;;2.70;;
58752;SDS011;44525;46.052;13.610;2023-07-31T14:10:46;3.95;;;2.83;;
58752;SDS011;44525;46.052;13.610;2023-07-31T14:13:11;4.10;;;2.83;;
58752;SDS011;44525;46.052;13.610;2023-07-31T14:15:37;4.60;;;3.10;;
58752;SDS011;44525;46.052;13.610;2023-07-31T14:18:02;3.42;;;2.50;;
58752;SDS011;44525;46.052;13.610;2023-07-31T14:20:27;4.35;;;2.90;;
58752;SDS011;44525;46.052;13.610;2023-07-31T14:22:53;4.13;;;2.90;;
58752;SDS011;44525;46.052;13.610;2023-07-31T14:25:19;4.72;;;3.00;;
58752;SDS011;44525;46.052;13.610;2023-07-31T14:27:45;4.70;;;2.90;;
58752;SDS011;44525;46.052;13.610;2023-07-31T14:30:10;4.38;;;3.17;;
58752;SDS011;44525;46.052;13.610;2023-07-31T14:32:36;4.50;;;2.97;;
58752;SDS011;44525;46.052;13.610;2023-07-31T14:35:02;5.80;;;2.90;;
58752;SDS011;44525;46.052;13.610;2023-07-31T14:37:35;4.70;;;2.92;;
58752;SDS011;44525;46.052;13.610;2023-07-31T14:40:05;4.13;;;2.90;;
58752;SDS011;44525;46.052;13.610;2023-07-31T14:42:32;5.32;;;3.00;;